Time;durP1;ratioP1;P1;durP2;ratioP2;P2;SDS_P1;SDS_P2;PMS_P1;PMS_P2;Temp;Humidity;BMP_temperature;BMP_pressure;BME280_temperature;BME280_humidity;BME280_pressure;Samples;Min_cycle;Max_cycle;Signal;HPM_P1;HPM_P2
2022/05/11 00:01:34;;;;;;;0.00;0.00;;;13.30;99.90;;;;;;4925561;29;20172;-65
2022/05/11 00:04:02;;;;;;;0.00;0.00;;;13.30;99.90;;;;;;4908319;29;20122;-65
2022/05/11 00:06:28;;;;;;;0.10;0.10;;;13.20;99.90;;;;;;4925907;29;20047;-65
2022/05/11 00:08:55;;;;;;;0.00;0.00;;;13.20;99.90;;;;;;4925194;29;20036;-66
2022/05/11 00:11:23;;;;;;;0.13;0.10;;;13.10;99.90;;;;;;4925053;29;20106;-65
2022/05/11 00:13:49;;;;;;;0.00;0.00;;;13.10;99.90;;;;;;4924990;29;20044;-65
2022/05/11 00:16:15;;;;;;;0.22;0.10;;;13.20;99.90;;;;;;4926041;29;20138;-65
2022/05/11 00:18:41;;;;;;;0.30;0.30;;;13.20;99.90;;;;;;4924718;29;20245;-65
2022/05/11 00:21:07;;;;;;;0.00;0.00;;;13.20;99.90;;;;;;4925073;29;20131;-65
2022/05/11 00:23:33;;;;;;;0.10;0.10;;;13.10;99.90;;;;;;4925302;29;20048;-65
2022/05/11 00:26:00;;;;;;;0.00;0.00;;;13.20;99.90;;;;;;4927954;29;20048;-65
2022/05/11 00:28:25;;;;;;;0.10;0.10;;;13.20;99.90;;;;;;4924931;29;20119;-65
2022/05/11 00:30:51;;;;;;;0.00;0.00;;;13.20;99.90;;;;;;4924958;29;20040;-64
2022/05/11 00:33:18;;;;;;;0.00;0.00;;;13.70;99.90;;;;;;4925386;29;20043;-66
2022/05/11 00:35:46;;;;;;;0.00;0.00;;;13.20;99.90;;;;;;4925951;29;20056;-64
2022/05/11 00:38:13;;;;;;;0.85;0.50;;;13.30;99.90;;;;;;4938145;29;20171;-65
2022/05/11 00:40:42;;;;;;;0.30;0.10;;;13.20;99.90;;;;;;4944222;29;20415;-65
2022/05/11 00:43:08;;;;;;;0.00;0.00;;;13.20;99.90;;;;;;4944573;28;20043;-65
2022/05/11 00:45:34;;;;;;;0.00;0.00;;;13.30;99.90;;;;;;4936751;29;20043;-67
2022/05/11 00:49:33;;;;;;;0.00;0.00;;;13.20;99.90;;;;;;4915650;29;20047;-65
2022/05/11 00:50:50;;;;;;;0.10;0.03;;;13.30;99.90;;;;;;4924708;29;20070;-66
2022/05/11 00:53:17;;;;;;;0.00;0.00;;;13.30;99.90;;;;;;4925261;29;20526;-63
2022/05/11 00:55:57;;;;;;;0.22;0.13;;;13.30;99.90;;;;;;4925534;29;20507;-66
2022/05/11 00:58:40;;;;;;;0.15;0.03;;;13.30;99.90;;;;;;4924879;29;20048;-64
2022/05/11 01:01:05;;;;;;;0.00;0.00;;;13.30;99.90;;;;;;4928155;29;20052;-66
2022/05/11 01:03:36;;;;;;;0.00;0.00;;;13.30;99.90;;;;;;4928181;29;20050;-66
2022/05/11 01:06:02;;;;;;;0.00;0.00;;;13.40;99.90;;;;;;4928505;29;20052;-66
2022/05/11 01:08:28;;;;;;;0.00;0.00;;;13.30;99.90;;;;;;4928498;29;20056;-64
2022/05/11 01:10:55;;;;;;;0.13;0.10;;;13.40;99.90;;;;;;4931608;23;20139;-64
2022/05/11 01:13:21;;;;;;;0.00;0.00;;;13.30;99.90;;;;;;4879894;29;20055;-65
2022/05/11 01:15:51;;;;;;;0.00;0.00;;;13.30;99.90;;;;;;4872579;29;20045;-65
2022/05/11 01:18:18;;;;;;;0.00;0.00;;;13.30;99.90;;;;;;4909523;29;20277;-65
2022/05/11 01:20:47;;;;;;;0.00;0.00;;;13.30;99.90;;;;;;4909658;29;20048;-65
2022/05/11 01:23:20;;;;;;;0.00;0.00;;;13.20;99.90;;;;;;4910164;29;20387;-65
2022/05/11 01:25:46;;;;;;;0.00;0.00;;;13.20;99.90;;;;;;4909035;29;20169;-64
2022/05/11 01:28:15;;;;;;;0.00;0.00;;;13.40;99.90;;;;;;4893089;29;20610;-65
2022/05/11 01:30:44;;;;;;;0.00;0.00;;;13.20;99.90;;;;;;4909035;29;20088;-64
2022/05/11 01:33:17;;;;;;;0.00;0.00;;;13.20;99.90;;;;;;4897293;29;20087;-66
2022/05/11 01:36:12;;;;;;;0.00;0.00;;;13.20;99.90;;;;;;4890459;29;20116;-65
2022/05/11 01:38:48;;;;;;;0.00;0.00;;;13.10;99.90;;;;;;4873059;29;20052;-65
2022/05/11 01:41:24;;;;;;;0.20;0.08;;;13.20;99.90;;;;;;4890813;29;20048;-66
2022/05/11 01:43:51;;;;;;;0.00;0.00;;;13.20;99.90;;;;;;4873009;29;20131;-66
2022/05/11 01:46:18;;;;;;;0.00;0.00;;;13.20;99.90;;;;;;4884078;29;20107;-65
2022/05/11 01:48:44;;;;;;;0.00;0.00;;;13.10;99.90;;;;;;4873482;29;20045;-65
2022/05/11 01:51:15;;;;;;;0.00;0.00;;;13.10;99.90;;;;;;4871745;29;20056;-65
2022/05/11 01:53:41;;;;;;;0.00;0.00;;;13.20;99.90;;;;;;4871654;29;20045;-64
2022/05/11 01:56:08;;;;;;;0.00;0.00;;;13.20;99.90;;;;;;4871771;29;20404;-67
2022/05/11 01:58:33;;;;;;;0.00;0.00;;;13.20;99.90;;;;;;4870663;29;20101;-65
2022/05/11 02:00:59;;;;;;;0.00;0.00;;;13.10;99.90;;;;;;4870871;29;20449;-65
2022/05/11 02:03:25;;;;;;;0.00;0.00;;;13.20;99.90;;;;;;4871241;29;20049;-64
2022/05/11 02:08:39;;;;;;;0.47;0.10;;;13.20;99.90;;;;;;4870946;29;20191;-65
2022/05/11 02:11:05;;;;;;;0.00;0.00;;;13.20;99.90;;;;;;4870367;29;20894;-65
2022/05/11 02:13:32;;;;;;;0.00;0.00;;;13.20;99.90;;;;;;4890016;29;20044;-64
2022/05/11 02:15:58;;;;;;;0.00;0.00;;;13.20;99.90;;;;;;4908376;29;20050;-64
2022/05/11 02:18:24;;;;;;;0.00;0.00;;;13.20;99.90;;;;;;4908292;29;20048;-64
2022/05/11 02:20:50;;;;;;;0.00;0.00;;;13.80;99.90;;;;;;4908621;29;20040;-67
2022/05/11 02:23:17;;;;;;;0.00;0.00;;;13.20;99.90;;;;;;4907876;29;20052;-64
2022/05/11 02:25:44;;;;;;;0.00;0.00;;;13.30;99.90;;;;;;4898471;29;20135;-65
2022/05/11 02:28:12;;;;;;;0.13;0.10;;;13.20;99.90;;;;;;4889633;29;20090;-65
2022/05/11 02:30:39;;;;;;;0.00;0.00;;;13.20;99.90;;;;;;4871698;29;20226;-64
2022/05/11 02:33:06;;;;;;;0.00;0.00;;;13.10;99.90;;;;;;4889581;29;20087;-66
2022/05/11 02:35:32;;;;;;;0.00;0.00;;;13.20;99.90;;;;;;4889137;29;20053;-64
2022/05/11 02:38:01;;;;;;;0.08;0.08;;;13.10;99.90;;;;;;4889634;29;20044;-64
2022/05/11 02:40:32;;;;;;;0.00;0.00;;;13.20;99.90;;;;;;4889279;29;20543;-64
2022/05/11 02:43:01;;;;;;;0.00;0.00;;;13.20;99.90;;;;;;4889448;29;20106;-65
2022/05/11 02:45:28;;;;;;;0.10;0.10;;;13.10;99.90;;;;;;4882476;29;20451;-65
2022/05/11 02:47:55;;;;;;;0.00;0.00;;;13.20;99.90;;;;;;4876545;29;20052;-65
2022/05/11 02:50:31;;;;;;;0.00;0.00;;;13.20;99.90;;;;;;4870244;29;20081;-65
2022/05/11 02:52:57;;;;;;;0.00;0.00;;;13.20;99.90;;;;;;4869916;29;20563;-65
2022/05/11 02:55:23;;;;;;;0.00;0.00;;;13.10;99.90;;;;;;4870370;29;20040;-65
2022/05/11 02:57:49;;;;;;;0.00;0.00;;;13.20;99.90;;;;;;4853620;29;20052;-66
2022/05/11 03:00:17;;;;;;;0.10;0.10;;;13.20;99.90;;;;;;4869942;29;20060;-66
2022/05/11 03:02:43;;;;;;;0.00;0.00;;;13.20;99.90;;;;;;4870618;29;20088;-65
2022/05/11 03:05:11;;;;;;;0.30;0.30;;;13.20;99.90;;;;;;4870054;29;20041;-64
2022/05/11 03:07:38;;;;;;;0.05;0.05;;;13.10;99.90;;;;;;4870157;29;20048;-65
2022/05/11 03:10:04;;;;;;;0.00;0.00;;;13.10;99.90;;;;;;4869473;29;20085;-64
2022/05/11 03:12:32;;;;;;;1.73;0.20;;;13.20;99.90;;;;;;4870178;29;20053;-65
2022/05/11 03:14:58;;;;;;;0.00;0.00;;;13.20;99.90;;;;;;4869272;29;20513;-64
2022/05/11 03:17:24;;;;;;;0.08;0.08;;;13.20;99.90;;;;;;4869355;29;20052;-64
2022/05/11 03:19:50;;;;;;;0.70;0.20;;;13.20;99.90;;;;;;4870054;29;20041;-65
2022/05/11 03:22:17;;;;;;;0.10;0.10;;;13.10;99.90;;;;;;4852961;29;20075;-65
2022/05/11 03:24:43;;;;;;;0.00;0.00;;;13.10;99.90;;;;;;4870314;29;20109;-65
2022/05/11 03:27:08;;;;;;;0.00;0.00;;;13.20;99.90;;;;;;4869287;29;20489;-66
2022/05/11 03:29:34;;;;;;;0.03;0.00;;;13.10;99.90;;;;;;4868936;29;20041;-64
2022/05/11 03:34:45;;;;;;;0.10;0.10;;;13.20;99.90;;;;;;4870082;29;20489;-64
2022/05/11 03:37:16;;;;;;;0.22;0.20;;;13.20;99.90;;;;;;4870069;29;20061;-65
2022/05/11 03:39:42;;;;;;;0.00;0.00;;;13.20;99.90;;;;;;4852794;29;20102;-64
2022/05/11 03:42:12;;;;;;;0.00;0.00;;;13.80;99.90;;;;;;4869668;29;20609;-67
2022/05/11 03:44:38;;;;;;;0.00;0.00;;;13.20;99.90;;;;;;4869011;29;20465;-67
2022/05/11 03:47:04;;;;;;;0.00;0.00;;;13.20;99.90;;;;;;4879848;29;20124;-64
2022/05/11 03:49:30;;;;;;;0.00;0.00;;;13.10;99.90;;;;;;4869284;29;20729;-64
2022/05/11 03:51:56;;;;;;;0.00;0.00;;;13.20;99.90;;;;;;4869724;29;20056;-64
2022/05/11 03:54:22;;;;;;;0.00;0.00;;;13.30;99.90;;;;;;4869432;29;20064;-64
2022/05/11 03:56:48;;;;;;;0.00;0.00;;;13.20;99.90;;;;;;4867744;29;20120;-64
2022/05/11 03:59:13;;;;;;;0.00;0.00;;;13.80;99.90;;;;;;4868986;29;20088;-64
2022/05/11 04:01:39;;;;;;;0.03;0.03;;;13.10;99.90;;;;;;4869498;29;20083;-65
2022/05/11 04:04:05;;;;;;;0.00;0.00;;;13.20;99.90;;;;;;4852133;29;20348;-64
2022/05/11 04:06:30;;;;;;;1.27;1.17;;;13.20;99.90;;;;;;4868610;29;20408;-64
2022/05/11 04:08:56;;;;;;;0.00;0.00;;;13.20;99.90;;;;;;4868919;29;20049;-66
2022/05/11 04:11:22;;;;;;;0.20;0.20;;;13.30;99.90;;;;;;4868716;29;20072;-65
2022/05/11 04:13:49;;;;;;;0.00;0.00;;;13.20;99.90;;;;;;4876212;29;20040;-65
2022/05/11 04:16:16;;;;;;;0.28;0.20;;;13.30;99.90;;;;;;4899655;29;20058;-64
2022/05/11 04:18:43;;;;;;;0.00;0.00;;;13.20;99.90;;;;;;4907321;29;20040;-66
2022/05/11 04:21:09;;;;;;;0.00;0.00;;;13.30;99.90;;;;;;4897651;29;20518;-65
2022/05/11 04:23:35;;;;;;;0.00;0.00;;;13.30;99.90;;;;;;4887865;29;20059;-66
2022/05/11 04:26:01;;;;;;;0.00;0.00;;;13.30;99.90;;;;;;4887840;29;20053;-67
2022/05/11 04:28:26;;;;;;;0.00;0.00;;;13.90;99.90;;;;;;4886324;29;20396;-64
2022/05/11 04:31:01;;;;;;;0.00;0.00;;;13.30;99.90;;;;;;4890705;29;20059;-64
2022/05/11 04:33:27;;;;;;;0.00;0.00;;;13.30;99.90;;;;;;4877873;29;20399;-64
2022/05/11 04:35:52;;;;;;;0.00;0.00;;;13.30;99.90;;;;;;4886690;29;20044;-65
2022/05/11 04:38:18;;;;;;;0.00;0.00;;;13.30;99.90;;;;;;4909757;29;20079;-64
2022/05/11 04:40:44;;;;;;;0.00;0.00;;;13.30;99.90;;;;;;4910498;29;20048;-64
2022/05/11 04:43:10;;;;;;;0.00;0.00;;;13.40;99.90;;;;;;4905530;29;20041;-65
2022/05/11 04:45:42;;;;;;;0.00;0.00;;;13.40;99.90;;;;;;4884588;29;20196;-65
2022/05/11 04:48:08;;;;;;;0.00;0.00;;;13.30;99.90;;;;;;4896446;29;20055;-64
2022/05/11 04:50:35;;;;;;;0.00;0.00;;;13.40;99.90;;;;;;4890942;29;20394;-64
2022/05/11 04:53:01;;;;;;;0.00;0.00;;;13.50;99.90;;;;;;4899862;29;20051;-65
2022/05/11 04:55:26;;;;;;;0.00;0.00;;;13.40;99.90;;;;;;4909868;29;20043;-64
2022/05/11 04:57:52;;;;;;;0.00;0.00;;;13.70;99.90;;;;;;4910219;29;20044;-65
2022/05/11 05:00:18;;;;;;;0.00;0.00;;;13.40;99.90;;;;;;4908889;29;20052;-64
2022/05/11 05:02:44;;;;;;;0.00;0.00;;;13.50;99.90;;;;;;4909691;29;20139;-65
2022/05/11 05:05:11;;;;;;;0.00;0.00;;;13.40;99.90;;;;;;4910009;29;20127;-65
2022/05/11 05:07:39;;;;;;;0.00;0.00;;;13.50;99.90;;;;;;4909788;29;20044;-65
2022/05/11 05:10:07;;;;;;;0.00;0.00;;;13.50;99.90;;;;;;4908769;29;20103;-64
2022/05/11 05:12:33;;;;;;;0.00;0.00;;;13.50;99.90;;;;;;4909675;29;20499;-65
2022/05/11 05:14:59;;;;;;;0.00;0.00;;;13.60;99.90;;;;;;4909201;29;20036;-65
2022/05/11 05:17:25;;;;;;;0.00;0.00;;;13.50;99.90;;;;;;4909022;29;20131;-66
2022/05/11 05:19:51;;;;;;;0.17;0.10;;;13.60;99.90;;;;;;4909645;29;20099;-66
2022/05/11 05:22:17;;;;;;;0.20;0.00;;;13.80;99.90;;;;;;4909365;29;20043;-64
2022/05/11 05:24:44;;;;;;;0.00;0.00;;;13.80;99.90;;;;;;4909789;29;20040;-64
2022/05/11 05:27:15;;;;;;;0.00;0.00;;;13.80;99.90;;;;;;4908785;29;20052;-64
2022/05/11 05:32:26;;;;;;;0.00;0.00;;;13.80;99.90;;;;;;4908773;29;20059;-65
2022/05/11 05:34:52;;;;;;;0.00;0.00;;;13.90;99.90;;;;;;4909373;29;20075;-65
2022/05/11 05:37:18;;;;;;;0.00;0.00;;;13.80;99.90;;;;;;4909270;29;20048;-65
2022/05/11 05:39:45;;;;;;;0.00;0.00;;;13.80;99.90;;;;;;4892245;29;20105;-66
2022/05/11 05:42:19;;;;;;;0.00;0.00;;;13.90;99.90;;;;;;4909316;29;20048;-64
2022/05/11 05:44:45;;;;;;;0.00;0.00;;;13.90;99.90;;;;;;4904145;29;20099;-64
2022/05/11 05:47:11;;;;;;;0.00;0.00;;;13.90;99.90;;;;;;4880240;29;20076;-64
2022/05/11 05:49:38;;;;;;;0.00;0.00;;;13.90;99.90;;;;;;4871136;29;20064;-64
2022/05/11 05:52:04;;;;;;;0.00;0.00;;;13.90;99.90;;;;;;4871657;29;20041;-64
2022/05/11 05:54:34;;;;;;;0.28;0.28;;;13.90;99.90;;;;;;4871445;29;20049;-64
2022/05/11 05:57:00;;;;;;;0.00;0.00;;;14.00;99.90;;;;;;4871202;29;20056;-65
2022/05/11 05:59:25;;;;;;;0.00;0.00;;;14.00;99.90;;;;;;4870477;29;20144;-65
2022/05/11 06:01:51;;;;;;;0.00;0.00;;;14.00;99.90;;;;;;4871308;29;20071;-64
2022/05/11 06:04:17;;;;;;;0.63;0.15;;;14.00;99.90;;;;;;4870664;29;20057;-65
2022/05/11 06:06:43;;;;;;;0.20;0.00;;;14.00;99.90;;;;;;4871489;29;20611;-65
2022/05/11 06:09:09;;;;;;;0.30;0.20;;;14.00;99.90;;;;;;4871173;29;20040;-64
2022/05/11 06:11:36;;;;;;;0.32;0.10;;;14.10;99.90;;;;;;4870277;29;20065;-65
2022/05/11 06:14:03;;;;;;;0.00;0.00;;;14.10;99.90;;;;;;4870488;29;20113;-64
2022/05/11 06:16:28;;;;;;;0.00;0.00;;;14.20;99.90;;;;;;4861019;29;20080;-65
2022/05/11 06:18:54;;;;;;;0.00;0.00;;;14.20;99.90;;;;;;4905543;29;20115;-64
2022/05/11 06:21:20;;;;;;;0.00;0.00;;;14.30;99.90;;;;;;4907965;29;20083;-65
2022/05/11 06:23:47;;;;;;;0.03;0.03;;;14.20;99.90;;;;;;4891618;29;20058;-65
2022/05/11 06:26:13;;;;;;;0.32;0.32;;;14.20;99.90;;;;;;4908473;29;20048;-65
2022/05/11 06:28:41;;;;;;;0.20;0.20;;;14.20;99.90;;;;;;4896163;29;20040;-64
2022/05/11 06:31:07;;;;;;;0.20;0.10;;;14.30;99.90;;;;;;4889243;29;20059;-65
2022/05/11 06:33:33;;;;;;;0.17;0.17;;;14.30;99.90;;;;;;4888986;29;20055;-64
2022/05/11 06:36:04;;;;;;;0.10;0.10;;;14.30;99.90;;;;;;4889367;29;20044;-66
2022/05/11 06:38:30;;;;;;;0.08;0.03;;;14.40;99.90;;;;;;4889005;29;20044;-64
2022/05/11 06:40:55;;;;;;;0.00;0.00;;;14.40;99.90;;;;;;4889204;29;20128;-65
2022/05/11 06:43:21;;;;;;;0.00;0.00;;;14.50;99.90;;;;;;4888595;29;20437;-65
2022/05/11 06:45:47;;;;;;;0.10;0.10;;;14.60;99.90;;;;;;4865699;29;20199;-63
2022/05/11 06:48:14;;;;;;;0.00;0.00;;;14.60;99.90;;;;;;4876526;29;20499;-64
2022/05/11 06:50:43;;;;;;;0.05;0.00;;;14.70;99.90;;;;;;4853419;29;20084;-65
2022/05/11 06:53:12;;;;;;;0.00;0.00;;;14.80;99.90;;;;;;4869937;29;20045;-65
2022/05/11 07:01:10;;;;;;;0.70;0.70;;;15.30;99.90;;;;;;4870186;29;20490;-65
2022/05/11 07:03:35;;;;;;;0.15;0.08;;;15.20;99.90;;;;;;4870158;29;21288;-66
2022/05/11 07:06:03;;;;;;;0.00;0.00;;;15.30;99.90;;;;;;4852839;29;20053;-66
2022/05/11 07:08:40;;;;;;;0.47;0.47;;;15.20;99.90;;;;;;4869921;29;20124;-65
2022/05/11 07:13:53;;;;;;;0.10;0.10;;;15.10;99.90;;;;;;4869369;29;20420;-64
2022/05/11 07:16:19;;;;;;;0.15;0.10;;;15.00;99.90;;;;;;4869951;29;20057;-65
2022/05/11 07:18:44;;;;;;;0.00;0.00;;;15.10;99.90;;;;;;4869856;29;20188;-66
2022/05/11 07:21:10;;;;;;;0.17;0.00;;;15.10;99.90;;;;;;4853310;29;20049;-65
2022/05/11 07:23:36;;;;;;;0.10;0.10;;;15.10;99.90;;;;;;4869507;29;20049;-65
2022/05/11 07:26:02;;;;;;;0.20;0.20;;;15.10;99.90;;;;;;4852676;29;20681;-66
2022/05/11 07:28:28;;;;;;;0.00;0.00;;;15.10;99.90;;;;;;4869310;29;20408;-66
2022/05/11 07:30:53;;;;;;;0.00;0.00;;;15.20;99.90;;;;;;4869948;29;20041;-67
2022/05/11 07:33:19;;;;;;;0.00;0.00;;;15.20;99.90;;;;;;4868503;29;20041;-64
2022/05/11 07:35:45;;;;;;;0.05;0.03;;;15.20;99.90;;;;;;4869297;29;20049;-65
2022/05/11 07:38:14;;;;;;;10.63;0.20;;;15.40;99.90;;;;;;4869994;29;20400;-66
2022/05/11 07:40:40;;;;;;;0.10;0.10;;;15.50;99.90;;;;;;4869528;29;20105;-67
2022/05/11 07:43:07;;;;;;;1.35;0.28;;;15.60;99.90;;;;;;4868622;29;20191;-68
2022/05/11 07:45:34;;;;;;;0.10;0.10;;;15.70;99.90;;;;;;4872106;29;20041;-66
2022/05/11 07:48:00;;;;;;;0.00;0.00;;;15.70;99.90;;;;;;4876893;29;20114;-66
2022/05/11 07:50:25;;;;;;;0.00;0.00;;;15.70;99.90;;;;;;4869506;29;20524;-66
2022/05/11 07:52:52;;;;;;;0.10;0.10;;;15.80;99.90;;;;;;4867799;29;20567;-66
2022/05/11 07:55:18;;;;;;;0.00;0.00;;;15.90;99.90;;;;;;4869253;29;20075;-66
2022/05/11 08:00:28;;;;;;;0.00;0.00;;;16.30;99.90;;;;;;4869271;29;20131;-66
2022/05/11 08:02:54;;;;;;;0.10;0.10;;;16.50;99.90;;;;;;4869431;29;20504;-66
2022/05/11 08:05:20;;;;;;;0.10;0.10;;;16.70;99.90;;;;;;4868925;29;20045;-66
2022/05/11 08:07:49;;;;;;;0.10;0.10;;;16.80;99.90;;;;;;4869504;29;20049;-67
2022/05/11 08:10:25;;;;;;;0.30;0.20;;;16.70;99.90;;;;;;4874023;29;20068;-63
2022/05/11 08:12:52;;;;;;;0.00;0.00;;;16.90;99.90;;;;;;4874342;29;20068;-63
2022/05/11 08:15:21;;;;;;;0.35;0.03;;;17.20;99.90;;;;;;4875351;29;20057;-63
2022/05/11 08:17:48;;;;;;;0.20;0.20;;;16.90;99.90;;;;;;4875638;29;20400;-65
2022/05/11 08:20:21;;;;;;;0.45;0.20;;;16.70;99.90;;;;;;4875174;29;20076;-65
2022/05/11 08:22:47;;;;;;;0.00;0.00;;;16.60;99.90;;;;;;4875422;29;20048;-66
2022/05/11 08:25:16;;;;;;;0.10;0.10;;;16.50;99.90;;;;;;4875484;29;20176;-64
2022/05/11 08:27:43;;;;;;;0.00;0.00;;;16.50;99.90;;;;;;4874599;29;20132;-64
2022/05/11 08:35:40;;;;;;;0.20;0.20;;;16.50;99.90;;;;;;4858230;29;20057;-63
2022/05/11 08:38:06;;;;;;;0.00;0.00;;;16.70;99.90;;;;;;4875337;29;20132;-64
2022/05/11 08:40:34;;;;;;;0.57;0.57;;;16.90;99.90;;;;;;4874481;29;20052;-64
2022/05/11 08:43:02;;;;;;;0.00;0.00;;;17.30;99.90;;;;;;4874819;29;20049;-63
2022/05/11 08:45:37;;;;;;;0.00;0.00;;;17.40;99.90;;;;;;4877306;29;20053;-58
2022/05/11 08:48:08;;;;;;;0.40;0.10;;;17.70;99.90;;;;;;4881684;29;20049;-65
2022/05/11 08:50:35;;;;;;;3.13;0.20;;;18.10;99.90;;;;;;4874791;29;20044;-65
2022/05/11 08:53:13;;;;;;;0.00;0.00;;;18.00;99.90;;;;;;4874973;29;20049;-65
2022/05/11 08:55:50;;;;;;;0.00;0.00;;;17.90;99.90;;;;;;4874735;29;20077;-66
2022/05/11 08:58:27;;;;;;;0.20;0.20;;;17.50;99.90;;;;;;4874184;29;20099;-66
2022/05/11 09:00:54;;;;;;;0.00;0.00;;;17.50;99.90;;;;;;4857894;29;20053;-66
2022/05/11 09:03:27;;;;;;;0.00;0.00;;;17.40;99.90;;;;;;4875083;29;20051;-66
2022/05/11 09:05:55;;;;;;;0.20;0.20;;;17.30;99.90;;;;;;4874366;29;20240;-66
2022/05/11 09:08:20;;;;;;;0.00;0.00;;;17.40;99.90;;;;;;4873678;29;20052;-66
2022/05/11 09:10:46;;;;;;;0.00;0.00;;;17.50;99.90;;;;;;4874169;29;20064;-66
2022/05/11 09:13:13;;;;;;;0.00;0.00;;;17.60;99.90;;;;;;4874652;29;20049;-67
2022/05/11 09:15:53;;;;;;;0.00;0.00;;;17.70;99.90;;;;;;4857484;29;20056;-67
2022/05/11 09:18:31;;;;;;;0.30;0.30;;;17.60;99.90;;;;;;4857844;29;20131;-66
2022/05/11 09:20:59;;;;;;;0.32;0.22;;;17.60;99.90;;;;;;4871417;29;20029;-66
2022/05/11 09:23:36;;;;;;;1.10;0.30;;;17.60;99.90;;;;;;4871761;29;20436;-66
2022/05/11 09:26:08;;;;;;;0.63;0.20;;;17.60;99.90;;;;;;4871827;29;20117;-66
2022/05/11 09:28:37;;;;;;;0.00;0.00;;;18.00;99.90;;;;;;4870817;29;20529;-67
2022/05/11 09:31:12;;;;;;;0.13;0.13;;;18.20;99.90;;;;;;4872066;29;20056;-66
2022/05/11 09:33:41;;;;;;;0.00;0.00;;;18.30;99.90;;;;;;4871360;29;20127;-66
2022/05/11 09:36:09;;;;;;;0.00;0.00;;;18.70;99.90;;;;;;4871643;29;20092;-66
2022/05/11 09:38:41;;;;;;;0.00;0.00;;;18.40;99.90;;;;;;4871260;29;20056;-66
2022/05/11 09:41:18;;;;;;;0.00;0.00;;;18.30;99.90;;;;;;4870982;29;20044;-66
2022/05/11 09:43:53;;;;;;;0.00;0.00;;;18.50;99.90;;;;;;4871157;29;20451;-66
2022/05/11 09:46:34;;;;;;;0.00;0.00;;;18.80;99.90;;;;;;4874841;29;20059;-66
2022/05/11 09:49:13;;;;;;;0.00;0.00;;;18.80;99.90;;;;;;4871268;29;20513;-66
2022/05/11 09:51:38;;;;;;;0.00;0.00;;;18.80;99.90;;;;;;4853637;29;20045;-66
2022/05/11 09:54:42;;;;;;;0.00;0.00;;;19.00;99.90;;;;;;4871298;29;20402;-66
2022/05/11 09:57:08;;;;;;;0.00;0.00;;;19.00;99.90;;;;;;4853086;29;20064;-66
2022/05/11 09:59:36;;;;;;;0.00;0.00;;;18.60;99.90;;;;;;4871245;29;20701;-66
2022/05/11 10:02:30;;;;;;;0.00;0.00;;;18.70;99.90;;;;;;4871079;29;20059;-66
2022/05/11 10:05:02;;;;;;;0.00;0.00;;;18.70;99.90;;;;;;4870784;29;20183;-66
2022/05/11 10:07:32;;;;;;;0.00;0.00;;;18.90;99.90;;;;;;4870741;29;20293;-66
2022/05/11 10:10:06;;;;;;;0.00;0.00;;;19.10;99.90;;;;;;4870404;29;20093;-66
2022/05/11 10:12:37;;;;;;;0.00;0.00;;;19.00;99.90;;;;;;4869994;29;20137;-66
2022/05/11 10:24:13;;;;;;;0.20;0.20;;;19.80;99.90;;;;;;4848300;29;20055;-66
2022/05/11 10:26:50;;;;;;;0.00;0.00;;;19.80;99.90;;;;;;4838118;29;20423;-66
2022/05/11 10:29:23;;;;;;;0.00;0.00;;;19.20;99.90;;;;;;4869848;29;20397;-66
2022/05/11 10:31:55;;;;;;;0.00;0.00;;;19.30;99.90;;;;;;4870387;29;20136;-66
2022/05/11 10:34:32;;;;;;;0.00;0.00;;;19.50;99.90;;;;;;4869508;29;20522;-66
2022/05/11 10:37:08;;;;;;;0.10;0.10;;;19.70;99.90;;;;;;4870360;29;20049;-67
2022/05/11 10:39:56;;;;;;;0.00;0.00;;;19.10;99.90;;;;;;4852829;29;20128;-66
2022/05/11 10:42:33;;;;;;;0.05;0.05;;;19.30;99.90;;;;;;4869584;29;20178;-66
2022/05/11 10:45:21;;;;;;;0.00;0.00;;;19.60;99.90;;;;;;4871729;29;20408;-66
2022/05/11 10:48:13;;;;;;;0.10;0.10;;;19.90;99.90;;;;;;4877869;29;20204;-69
2022/05/11 10:50:46;;;;;;;0.10;0.10;;;19.80;99.90;;;;;;4869493;29;20404;-69
2022/05/11 10:53:33;;;;;;;0.00;0.00;;;20.20;99.90;;;;;;4870030;29;20433;-69
2022/05/11 10:56:04;;;;;;;0.00;0.00;;;19.90;99.90;;;;;;4869559;29;20053;-69
2022/05/11 10:58:33;;;;;;;0.00;0.00;;;19.50;99.90;;;;;;4852184;29;20083;-69
2022/05/11 11:01:08;;;;;;;0.68;0.32;;;19.80;99.90;;;;;;4853287;29;20068;-69
2022/05/11 11:03:49;;;;;;;0.10;0.10;;;19.90;99.90;;;;;;4869508;29;20069;-69
2022/05/11 11:09:21;;;;;;;0.00;0.00;;;20.50;99.90;;;;;;4852618;29;20053;-68
2022/05/11 11:12:00;;;;;;;0.10;0.10;;;20.80;99.90;;;;;;4869111;29;20064;-69
2022/05/11 11:14:35;;;;;;;0.00;0.00;;;20.60;99.90;;;;;;4869258;29;20087;-69
2022/05/11 11:17:04;;;;;;;0.00;0.00;;;20.40;99.90;;;;;;4869225;29;20068;-68
2022/05/11 11:19:31;;;;;;;1.15;0.20;;;20.90;99.90;;;;;;4868945;29;20045;-69
2022/05/11 11:21:56;;;;;;;0.00;0.00;;;20.40;99.90;;;;;;4868845;29;20115;-69
2022/05/11 11:24:23;;;;;;;0.00;0.00;;;20.90;99.90;;;;;;4869237;29;20197;-69
2022/05/11 11:27:01;;;;;;;0.00;0.00;;;21.00;99.90;;;;;;4852345;29;20406;-69
2022/05/11 11:29:31;;;;;;;0.25;0.22;;;20.80;99.90;;;;;;4868347;29;20052;-69
2022/05/11 11:31:56;;;;;;;0.00;0.00;;;20.40;99.90;;;;;;4869060;29;20051;-68
2022/05/11 11:34:25;;;;;;;0.08;0.08;;;21.00;99.90;;;;;;4878600;29;20044;-70
2022/05/11 11:36:52;;;;;;;0.00;0.00;;;20.90;99.90;;;;;;4881205;29;20082;-70
2022/05/11 11:39:48;;;;;;;0.20;0.20;;;20.80;99.90;;;;;;4889331;29;20044;-70
2022/05/11 11:42:34;;;;;;;0.00;0.00;;;20.90;99.90;;;;;;4905288;29;20267;-71
2022/05/11 11:45:01;;;;;;;0.17;0.10;;;20.80;99.90;;;;;;4881851;29;20597;-71
2022/05/11 11:47:26;;;;;;;0.00;0.00;;;21.10;99.90;;;;;;4860002;29;20087;-71
2022/05/11 11:49:57;;;;;;;0.00;0.00;;;21.00;99.90;;;;;;4868486;29;20144;-72
2022/05/11 11:52:43;;;;;;;0.90;0.25;;;20.50;99.90;;;;;;4884242;29;20037;-73
2022/05/11 11:55:18;;;;;;;0.00;0.00;;;20.80;99.90;;;;;;4885709;29;20104;-72
2022/05/11 11:57:45;;;;;;;0.65;0.17;;;20.50;99.90;;;;;;4871041;29;20052;-73
2022/05/11 12:00:20;;;;;;;0.00;0.00;;;20.70;99.90;;;;;;4876220;29;20388;-73
2022/05/11 12:02:47;;;;;;;0.00;0.00;;;20.70;99.90;;;;;;4892411;29;20088;-72
2022/05/11 12:05:32;;;;;;;0.00;0.00;;;20.80;99.90;;;;;;4886240;29;20531;-73
2022/05/11 12:17:01;;;;;;;0.00;0.00;;;21.10;99.90;;;;;;4887281;29;20644;-68
2022/05/11 12:19:34;;;;;;;0.10;0.10;;;20.90;99.90;;;;;;4886650;29;20051;-72
2022/05/11 12:22:03;;;;;;;0.00;0.00;;;20.80;99.90;;;;;;4887444;29;20064;-73
2022/05/11 12:24:37;;;;;;;0.00;0.00;;;21.00;99.90;;;;;;4887373;29;20094;-73
2022/05/11 12:27:07;;;;;;;0.00;0.00;;;21.20;99.90;;;;;;4885219;29;20053;-70
2022/05/11 12:32:36;;;;;;;;;;;21.50;99.90;;;;;;4887345;29;20053;-70
2022/05/11 12:35:08;;;;;;;0.00;0.00;;;21.40;99.90;;;;;;4887334;29;19951;-70
2022/05/11 12:37:37;;;;;;;0.08;0.08;;;21.20;99.90;;;;;;4886905;29;20384;-69
2022/05/11 12:40:08;;;;;;;0.43;0.10;;;21.60;99.90;;;;;;4885775;29;20040;-69
2022/05/11 12:42:46;;;;;;;0.00;0.00;;;21.70;99.90;;;;;;4869508;29;20095;-69
2022/05/11 12:45:14;;;;;;;0.55;0.55;;;21.30;99.90;;;;;;4879079;29;20049;-71
2022/05/11 12:47:45;;;;;;;0.00;0.00;;;21.30;99.90;;;;;;4876695;29;20053;-69
2022/05/11 12:50:31;;;;;;;0.05;0.00;;;21.40;99.90;;;;;;4868965;29;20033;-72
2022/05/11 12:53:04;;;;;;;0.00;0.00;;;21.40;99.90;;;;;;4852062;29;20061;-69
2022/05/11 12:55:33;;;;;;;0.00;0.00;;;21.60;99.90;;;;;;4869074;29;20108;-76
2022/05/11 12:57:59;;;;;;;0.00;0.00;;;21.80;99.90;;;;;;4871432;29;20049;-72
2022/05/11 13:00:28;;;;;;;0.00;0.00;;;21.40;99.90;;;;;;4871835;29;20041;-72
2022/05/11 13:02:55;;;;;;;0.32;0.13;;;21.30;99.90;;;;;;4872006;29;20056;-73
2022/05/11 13:05:21;;;;;;;0.08;0.08;;;21.30;99.90;;;;;;4854746;29;20168;-68
2022/05/11 13:08:00;;;;;;;0.00;0.00;;;21.40;99.90;;;;;;4872034;29;20060;-68
2022/05/11 13:10:34;;;;;;;0.00;0.00;;;21.20;99.90;;;;;;4871177;29;20057;-67
2022/05/11 13:13:02;;;;;;;0.08;0.08;;;21.40;99.90;;;;;;4877075;29;20056;-67
2022/05/11 13:15:45;;;;;;;0.05;0.00;;;21.50;99.90;;;;;;4877893;29;20040;-67
2022/05/11 13:18:40;;;;;;;0.00;0.00;;;21.70;99.90;;;;;;4878024;29;20144;-66
2022/05/11 13:21:08;;;;;;;0.00;0.00;;;21.60;99.90;;;;;;4866883;29;20052;-68
2022/05/11 13:23:48;;;;;;;0.03;0.03;;;21.70;99.90;;;;;;4877371;29;20453;-68
2022/05/11 13:26:42;;;;;;;0.00;0.00;;;21.70;99.90;;;;;;4868790;29;20053;-59
2022/05/11 13:29:18;;;;;;;0.00;0.00;;;21.80;99.90;;;;;;4877584;29;20073;-68
2022/05/11 13:31:46;;;;;;;0.00;0.00;;;21.60;99.90;;;;;;4878091;29;20049;-68
2022/05/11 13:34:42;;;;;;;0.10;0.10;;;21.40;99.90;;;;;;4877730;29;20049;-68
2022/05/11 13:37:34;;;;;;;0.00;0.00;;;21.20;99.90;;;;;;4873587;29;20056;-68
2022/05/11 13:39:59;;;;;;;0.00;0.00;;;21.00;99.90;;;;;;4876230;29;20117;-68
2022/05/11 13:42:28;;;;;;;0.00;0.00;;;20.90;99.90;;;;;;4875892;29;20096;-66
2022/05/11 13:45:04;;;;;;;0.00;0.00;;;20.90;99.90;;;;;;4877105;29;20037;-66
2022/05/11 13:50:25;;;;;;;0.10;0.10;;;20.60;99.90;;;;;;4877060;29;20033;-66
2022/05/11 13:52:56;;;;;;;0.10;0.00;;;20.30;99.90;;;;;;4860977;29;20061;-66